createdAt,value
2023-05-08T00:00:39.093Z,0.80
2023-05-08T00:02:57.712Z,0.80
2023-05-08T00:05:08.643Z,0.90
2023-05-08T00:07:17.991Z,1.00
2023-05-08T00:09:27.374Z,1.00
2023-05-08T00:11:36.839Z,0.90
2023-05-08T00:13:46.593Z,1.40
2023-05-08T00:15:55.766Z,0.90
2023-05-08T00:18:05.273Z,0.70
2023-05-08T00:20:16.617Z,1.00
2023-05-08T00:22:26.072Z,0.90
2023-05-08T00:24:35.601Z,0.80
2023-05-08T00:26:44.861Z,0.80
2023-05-08T00:28:54.035Z,0.80
2023-05-08T00:31:05.257Z,0.60
2023-05-08T00:33:14.507Z,0.80
2023-05-08T00:35:24.113Z,0.80
2023-05-08T00:37:33.189Z,1.00
2023-05-08T00:39:42.633Z,0.80
2023-05-08T00:41:51.843Z,0.70
2023-05-08T00:44:01.982Z,0.70
2023-05-08T00:46:11.941Z,0.70
2023-05-08T00:48:21.362Z,0.90
2023-05-08T00:50:30.975Z,0.70
2023-05-08T00:52:41.207Z,0.80
2023-05-08T00:54:51.068Z,0.70
2023-05-08T00:57:00.266Z,0.60
2023-05-08T00:59:13.631Z,0.60
2023-05-08T01:01:23.080Z,0.60
2023-05-08T01:03:32.900Z,0.70
2023-05-08T01:05:42.665Z,0.70
2023-05-08T01:07:52.288Z,0.60
2023-05-08T01:10:01.654Z,0.60
2023-05-08T01:12:19.460Z,0.80
2023-05-08T01:14:51.787Z,1.00
2023-05-08T01:17:12.035Z,0.80
2023-05-08T01:20:00.357Z,0.90
2023-05-08T01:22:34.126Z,0.90
2023-05-08T01:25:09.701Z,0.70
2023-05-08T01:27:57.470Z,0.70
2023-05-08T01:30:33.898Z,0.80
2023-05-08T01:32:45.590Z,0.60
2023-05-08T01:35:05.379Z,0.80
2023-05-08T01:37:18.969Z,2.90
2023-05-08T01:39:38.614Z,6.50
2023-05-08T01:41:56.721Z,3.70
2023-05-08T01:44:15.921Z,2.00
2023-05-08T01:46:29.984Z,1.20
2023-05-08T01:48:46.384Z,0.90
2023-05-08T01:51:02.787Z,0.70
2023-05-08T01:53:18.767Z,1.10
2023-05-08T01:55:32.284Z,0.90
2023-05-08T01:57:48.525Z,0.70
2023-05-08T01:59:59.779Z,0.80
2023-05-08T02:02:11.528Z,1.30
2023-05-08T02:04:22.133Z,0.90
2023-05-08T02:06:33.884Z,0.90
2023-05-08T02:10:54.179Z,0.70
2023-05-08T02:13:06.755Z,0.70
2023-05-08T02:15:18.167Z,1.10
2023-05-08T02:17:28.919Z,1.00
2023-05-08T02:19:41.717Z,0.90
2023-05-08T02:21:53.389Z,0.70
2023-05-08T02:26:14.059Z,0.80
2023-05-08T02:28:25.164Z,0.60
2023-05-08T02:30:35.346Z,0.70
2023-05-08T02:32:48.441Z,0.90
2023-05-08T02:35:03.677Z,0.70
2023-05-08T02:37:16.194Z,0.80
2023-05-08T02:39:31.684Z,0.60
2023-05-08T02:41:46.814Z,0.70
2023-05-08T02:43:57.945Z,0.90
2023-05-08T02:46:16.365Z,0.80
2023-05-08T02:48:30.708Z,0.80
2023-05-08T02:50:47.452Z,0.90
2023-05-08T02:53:05.029Z,0.70
2023-05-08T02:55:25.298Z,0.80
2023-05-08T02:57:41.909Z,0.70
2023-05-08T02:59:58.985Z,0.80
2023-05-08T03:02:24.698Z,1.00
2023-05-08T03:04:41.604Z,1.10
2023-05-08T03:06:52.328Z,1.30
2023-05-08T03:09:05.414Z,1.00
2023-05-08T03:11:22.151Z,0.70
2023-05-08T03:13:33.707Z,1.00
2023-05-08T03:15:48.512Z,0.80
2023-05-08T03:18:00.433Z,0.70
2023-05-08T03:20:14.128Z,1.00
2023-05-08T03:22:26.497Z,0.90
2023-05-08T03:24:39.732Z,1.00
2023-05-08T03:26:49.648Z,0.60
2023-05-08T03:29:01.064Z,0.80
2023-05-08T03:31:17.148Z,0.90
2023-05-08T03:33:28.279Z,0.90
2023-05-08T03:35:39.764Z,1.40
2023-05-08T03:37:51.830Z,1.30
2023-05-08T03:40:01.769Z,1.00
2023-05-08T03:42:21.683Z,1.30
2023-05-08T03:44:32.935Z,1.10
2023-05-08T03:46:44.163Z,1.10
2023-05-08T03:48:55.014Z,1.00
2023-05-08T03:51:06.122Z,1.50
2023-05-08T03:53:18.066Z,1.20
2023-05-08T03:55:28.145Z,1.00
2023-05-08T03:57:42.343Z,1.10
2023-05-08T04:00:00.930Z,1.40
2023-05-08T04:02:21.648Z,1.00
2023-05-08T04:04:40.357Z,1.00
2023-05-08T04:06:58.457Z,0.90
2023-05-08T04:09:29.105Z,0.90
2023-05-08T04:11:44.038Z,1.00
2023-05-08T04:14:02.667Z,1.10
2023-05-08T04:16:19.552Z,1.00
2023-05-08T04:18:32.878Z,1.00
2023-05-08T04:20:44.553Z,1.00
2023-05-08T04:22:59.579Z,1.00
2023-05-08T04:25:11.403Z,0.80
2023-05-08T04:27:21.497Z,0.90
2023-05-08T04:29:31.409Z,1.00
2023-05-08T04:31:42.370Z,0.90
2023-05-08T04:33:52.019Z,0.90
2023-05-08T04:36:03.806Z,0.80
2023-05-08T04:38:13.799Z,0.90
2023-05-08T04:40:23.607Z,0.90
2023-05-08T04:42:33.869Z,0.90
2023-05-08T04:44:43.344Z,0.90
2023-05-08T04:46:52.624Z,0.80
2023-05-08T04:49:01.767Z,0.90
2023-05-08T04:51:11.384Z,0.90
2023-05-08T04:53:21.365Z,1.00
2023-05-08T04:55:31.189Z,0.80
2023-05-08T04:57:40.463Z,0.80
2023-05-08T04:59:49.782Z,1.20
2023-05-08T05:01:59.306Z,1.10
2023-05-08T05:04:08.886Z,0.70
2023-05-08T05:06:18.338Z,0.70
2023-05-08T05:08:27.632Z,1.10
2023-05-08T05:10:37.532Z,1.20
2023-05-08T05:12:47.359Z,1.10
2023-05-08T05:14:57.166Z,0.80
2023-05-08T05:17:06.601Z,0.90
2023-05-08T05:19:15.817Z,1.00
2023-05-08T05:21:25.351Z,1.00
2023-05-08T05:23:35.204Z,0.70
2023-05-08T05:25:44.346Z,0.60
2023-05-08T05:27:53.496Z,0.80
2023-05-08T05:30:02.750Z,1.00
2023-05-08T05:32:13.339Z,0.80
2023-05-08T05:34:22.829Z,1.10
2023-05-08T05:36:31.978Z,0.80
2023-05-08T05:38:41.809Z,0.90
2023-05-08T05:40:51.312Z,0.80
2023-05-08T05:43:00.564Z,0.90
2023-05-08T05:45:12.214Z,1.00
2023-05-08T05:47:21.846Z,0.80
2023-05-08T05:49:31.272Z,0.80
2023-05-08T05:51:40.713Z,0.90
2023-05-08T05:53:51.085Z,1.00
2023-05-08T05:56:00.686Z,1.20
2023-05-08T05:58:09.807Z,0.70
2023-05-08T06:00:21.542Z,0.80
2023-05-08T06:02:34.241Z,0.90
2023-05-08T06:04:43.922Z,0.80
2023-05-08T06:06:53.024Z,0.80
2023-05-08T06:09:02.212Z,0.80
2023-05-08T06:11:11.727Z,0.90
2023-05-08T06:13:21.328Z,0.80
2023-05-08T06:15:30.682Z,0.80
2023-05-08T06:17:39.976Z,1.10
2023-05-08T06:19:50.875Z,0.80
2023-05-08T06:22:00.001Z,0.90
2023-05-08T06:24:10.174Z,0.90
2023-05-08T06:26:21.527Z,0.90
2023-05-08T06:30:39.156Z,0.80
2023-05-08T06:32:48.526Z,0.90
2023-05-08T06:34:57.951Z,0.90
2023-05-08T06:37:07.091Z,1.00
2023-05-08T06:39:16.576Z,0.80
2023-05-08T06:41:25.705Z,0.80
2023-05-08T06:43:35.017Z,0.70
2023-05-08T06:45:45.084Z,1.00
2023-05-08T06:47:54.238Z,1.00
2023-05-08T06:50:03.994Z,1.10
2023-05-08T06:52:13.430Z,0.70
2023-05-08T06:54:22.969Z,0.70
2023-05-08T06:56:32.076Z,0.80
2023-05-08T06:58:41.171Z,0.80
2023-05-08T07:00:50.510Z,0.70
2023-05-08T07:02:59.667Z,0.90
2023-05-08T07:05:10.642Z,0.90
2023-05-08T07:07:20.090Z,0.70
2023-05-08T07:09:29.521Z,0.90
2023-05-08T07:11:38.976Z,0.90
2023-05-08T07:13:49.006Z,1.10
2023-05-08T07:15:58.227Z,0.80
2023-05-08T07:18:07.695Z,1.00
2023-05-08T07:20:17.266Z,0.80
2023-05-08T07:22:26.507Z,0.90
2023-05-08T07:24:36.508Z,1.00
2023-05-08T07:26:45.940Z,0.90
2023-05-08T07:28:55.352Z,1.10
2023-05-08T07:31:08.523Z,0.90
2023-05-08T07:33:17.925Z,0.90
2023-05-08T07:35:27.309Z,1.00
2023-05-08T07:37:36.611Z,0.90
2023-05-08T07:39:47.823Z,0.90
2023-05-08T07:41:56.937Z,1.10
2023-05-08T07:44:06.158Z,0.90
2023-05-08T07:46:21.294Z,0.80
2023-05-08T07:48:30.520Z,0.90
2023-05-08T07:50:39.703Z,1.20
2023-05-08T07:52:51.541Z,1.00
2023-05-08T07:55:01.251Z,0.80
2023-05-08T07:57:10.489Z,1.00
2023-05-08T07:59:19.812Z,0.90
2023-05-08T08:01:28.956Z,0.80
2023-05-08T08:03:38.209Z,1.10
2023-05-08T08:05:47.714Z,1.10
2023-05-08T08:07:56.761Z,1.20
2023-05-08T08:10:08.261Z,0.90
2023-05-08T08:12:17.738Z,1.00
2023-05-08T08:14:26.879Z,1.40
2023-05-08T08:16:36.106Z,1.00
2023-05-08T08:18:45.509Z,0.80
2023-05-08T08:20:54.620Z,0.90
2023-05-08T08:23:04.090Z,0.90
2023-05-08T08:25:14.754Z,1.10
2023-05-08T08:27:24.103Z,1.20
2023-05-08T08:29:33.746Z,1.00
2023-05-08T08:31:43.091Z,1.10
2023-05-08T08:33:52.718Z,1.10
2023-05-08T08:36:01.837Z,1.30
2023-05-08T08:38:10.892Z,1.30
2023-05-08T08:40:20.286Z,1.20
2023-05-08T08:42:29.378Z,1.40
2023-05-08T08:44:39.974Z,1.20
2023-05-08T08:46:54.334Z,1.10
2023-05-08T08:49:09.214Z,1.50
2023-05-08T08:51:26.451Z,1.20
2023-05-08T08:53:44.808Z,1.00
2023-05-08T08:55:57.601Z,1.00
2023-05-08T08:58:16.437Z,1.50
2023-05-08T09:00:30.202Z,1.40
2023-05-08T09:02:39.925Z,1.30
2023-05-08T09:04:51.113Z,1.20
2023-05-08T09:07:00.168Z,1.20
2023-05-08T09:09:09.301Z,0.90
2023-05-08T09:11:18.654Z,1.10
2023-05-08T09:13:27.954Z,1.20
2023-05-08T09:15:37.303Z,1.30
2023-05-08T09:17:46.817Z,1.50
2023-05-08T09:19:56.586Z,1.50
2023-05-08T09:22:09.600Z,0.90
2023-05-08T09:24:18.781Z,1.50
2023-05-08T09:26:37.035Z,1.90
2023-05-08T09:28:46.526Z,1.40
2023-05-08T09:30:59.260Z,1.70
2023-05-08T09:35:16.430Z,1.70
2023-05-08T09:37:26.673Z,1.60
2023-05-08T09:39:35.977Z,1.90
2023-05-08T09:42:01.071Z,1.80
2023-05-08T09:44:10.555Z,1.90
2023-05-08T09:46:29.111Z,1.70
2023-05-08T09:48:46.202Z,1.70
2023-05-08T09:51:09.312Z,1.80
2023-05-08T09:53:18.687Z,1.80
2023-05-08T09:55:28.085Z,1.70
2023-05-08T09:57:39.693Z,1.40
2023-05-08T09:59:49.205Z,1.90
2023-05-08T10:02:18.592Z,1.80
2023-05-08T10:04:38.202Z,1.90
2023-05-08T10:07:07.124Z,1.30
2023-05-08T10:09:28.895Z,1.50
2023-05-08T10:12:05.755Z,1.80
2023-05-08T10:14:20.866Z,1.40
2023-05-08T10:16:52.188Z,1.50
2023-05-08T10:19:22.252Z,1.60
2023-05-08T10:21:52.370Z,1.70
2023-05-08T10:24:23.855Z,1.50
2023-05-08T10:27:07.485Z,1.70
2023-05-08T10:29:54.021Z,1.60
2023-05-08T10:32:25.266Z,1.50
2023-05-08T10:34:43.372Z,1.70
2023-05-08T10:37:13.657Z,1.90
2023-05-08T10:39:44.696Z,1.90
2023-05-08T10:42:15.375Z,1.70
2023-05-08T10:44:33.644Z,1.80
2023-05-08T10:47:02.041Z,1.70
2023-05-08T10:49:22.216Z,1.90
2023-05-08T10:51:49.375Z,1.90
2023-05-08T10:54:29.254Z,2.00
2023-05-08T10:57:11.912Z,2.10
2023-05-08T10:59:46.728Z,1.80
2023-05-08T11:02:16.838Z,1.80
2023-05-08T11:04:46.266Z,1.80
2023-05-08T11:07:15.835Z,1.90
2023-05-08T11:09:32.120Z,1.70
2023-05-08T11:11:52.698Z,2.20
2023-05-08T11:14:18.098Z,1.90
2023-05-08T11:17:10.774Z,2.00
2023-05-08T11:19:28.750Z,1.80
2023-05-08T11:22:23.393Z,2.00
2023-05-08T11:24:42.722Z,1.70
2023-05-08T11:26:54.799Z,2.00
2023-05-08T11:29:24.030Z,2.20
2023-05-08T11:31:57.450Z,2.30
2023-05-08T11:34:06.782Z,1.80
2023-05-08T11:36:38.274Z,1.90
2023-05-08T11:39:07.988Z,1.90
2023-05-08T11:41:37.391Z,1.80
2023-05-08T11:44:21.432Z,1.90
2023-05-08T11:46:55.139Z,2.10
2023-05-08T11:49:20.406Z,1.80
2023-05-08T11:51:45.576Z,1.70
2023-05-08T11:54:05.190Z,1.60
2023-05-08T11:56:18.115Z,2.00
2023-05-08T11:58:37.821Z,1.50
2023-05-08T12:01:02.678Z,2.20
2023-05-08T12:03:16.368Z,2.30
2023-05-08T12:05:46.425Z,1.80
2023-05-08T12:08:16.727Z,1.80
2023-05-08T12:10:29.327Z,2.00
2023-05-08T12:12:58.676Z,1.70
2023-05-08T12:15:16.526Z,2.00
2023-05-08T12:17:46.431Z,1.50
2023-05-08T12:20:11.215Z,1.90
2023-05-08T12:22:23.725Z,1.70
2023-05-08T12:24:34.613Z,1.80
2023-05-08T12:26:55.143Z,2.10
2023-05-08T12:29:20.613Z,2.30
2023-05-08T12:34:10.522Z,1.70
2023-05-08T12:36:40.627Z,1.70
2023-05-08T12:39:18.236Z,1.90
2023-05-08T12:41:43.178Z,2.60
2023-05-08T12:44:22.151Z,2.00
2023-05-08T12:46:51.241Z,2.10
2023-05-08T12:49:34.553Z,2.20
2023-05-08T12:51:51.743Z,2.30
2023-05-08T12:54:11.075Z,2.30
2023-05-08T12:56:30.217Z,2.60
2023-05-08T12:58:42.649Z,2.10
2023-05-08T13:01:14.546Z,2.00
2023-05-08T13:03:36.738Z,1.90
2023-05-08T13:06:02.081Z,2.00
2023-05-08T13:08:17.362Z,2.50
2023-05-08T13:10:51.228Z,1.80
2023-05-08T13:13:10.803Z,2.10
2023-05-08T13:15:40.862Z,3.60
2023-05-08T13:18:01.204Z,1.90
2023-05-08T13:20:14.808Z,2.30
2023-05-08T13:22:44.308Z,2.20
2023-05-08T13:25:15.179Z,2.10
2023-05-08T13:27:24.786Z,2.30
2023-05-08T13:29:54.227Z,2.50
2023-05-08T13:32:06.780Z,2.40
2023-05-08T13:34:37.765Z,2.30
2023-05-08T13:37:04.438Z,2.50
2023-05-08T13:39:13.789Z,3.00
2023-05-08T13:41:33.220Z,3.20
2023-05-08T13:43:42.864Z,2.90
2023-05-08T13:45:52.546Z,3.50
2023-05-08T13:48:08.439Z,3.20
2023-05-08T13:50:22.567Z,3.40
2023-05-08T13:52:54.698Z,2.90
2023-05-08T13:55:25.332Z,2.80
2023-05-08T13:57:46.030Z,3.20
2023-05-08T13:59:58.641Z,3.50
2023-05-08T14:02:28.381Z,2.60
2023-05-08T14:04:58.389Z,3.40
2023-05-08T14:07:18.824Z,3.20
2023-05-08T14:09:45.211Z,3.50
2023-05-08T14:12:04.871Z,3.00
2023-05-08T14:14:34.622Z,3.10
2023-05-08T14:17:04.208Z,3.20
2023-05-08T14:19:33.514Z,3.00
2023-05-08T14:22:02.880Z,3.20
2023-05-08T14:24:32.188Z,3.30
2023-05-08T14:26:45.214Z,3.00
2023-05-08T14:29:14.482Z,3.10
2023-05-08T14:31:44.165Z,3.40
2023-05-08T14:34:06.454Z,3.60
2023-05-08T14:36:35.807Z,3.40
2023-05-08T14:38:55.114Z,3.60
2023-05-08T14:41:14.366Z,3.30
2023-05-08T14:43:44.307Z,3.30
2023-05-08T14:45:58.554Z,3.50
2023-05-08T14:48:28.734Z,3.50
2023-05-08T14:50:41.446Z,3.20
2023-05-08T14:53:10.908Z,2.70
2023-05-08T14:55:41.025Z,3.00
2023-05-08T14:58:10.498Z,3.50
2023-05-08T15:00:40.137Z,3.20
2023-05-08T15:03:09.749Z,3.30
2023-05-08T15:05:39.414Z,2.80
2023-05-08T15:08:10.036Z,3.30
2023-05-08T15:10:39.834Z,3.10
2023-05-08T15:13:09.203Z,3.20
2023-05-08T15:15:21.519Z,3.40
2023-05-08T15:17:30.961Z,3.20
2023-05-08T15:19:40.412Z,3.10
2023-05-08T15:22:00.745Z,3.00
2023-05-08T15:24:13.712Z,2.80
2023-05-08T15:26:33.097Z,2.40
2023-05-08T15:28:52.825Z,3.00
2023-05-08T15:31:07.434Z,2.30
2023-05-08T15:33:26.094Z,2.70
2023-05-08T15:35:45.661Z,2.40
2023-05-08T15:38:15.099Z,2.50
2023-05-08T15:40:35.928Z,2.70
2023-05-08T15:42:48.760Z,2.40
2023-05-08T15:45:02.333Z,2.80
2023-05-08T15:47:31.794Z,2.20
2023-05-08T15:50:01.197Z,1.90
2023-05-08T15:52:30.665Z,1.80
2023-05-08T15:54:49.382Z,2.20
2023-05-08T15:57:08.744Z,2.40
2023-05-08T15:59:18.401Z,2.20
2023-05-08T16:01:47.879Z,1.80
2023-05-08T16:04:17.660Z,2.50
2023-05-08T16:06:47.333Z,2.30
2023-05-08T16:09:06.726Z,2.20
2023-05-08T16:11:37.043Z,2.40
2023-05-08T16:14:06.506Z,2.30
2023-05-08T16:16:36.126Z,1.90
2023-05-08T16:18:45.690Z,2.30
2023-05-08T16:20:58.753Z,2.20
2023-05-08T16:23:28.201Z,2.30
2023-05-08T16:25:57.462Z,1.80
2023-05-08T16:28:27.363Z,2.00
2023-05-08T16:30:47.880Z,2.70
2023-05-08T16:33:08.235Z,2.00
2023-05-08T16:35:37.421Z,2.20
2023-05-08T16:37:50.757Z,2.60
2023-05-08T16:40:20.508Z,1.80
2023-05-08T16:42:50.417Z,2.40
2023-05-08T16:44:59.838Z,2.10
2023-05-08T16:47:29.304Z,1.60
2023-05-08T16:49:38.753Z,1.50
2023-05-08T16:51:48.251Z,1.70
2023-05-08T16:54:19.825Z,1.50
2023-05-08T16:56:38.151Z,1.30
2023-05-08T16:58:58.624Z,1.40
2023-05-08T17:01:27.958Z,1.10
2023-05-08T17:03:57.527Z,1.40
2023-05-08T17:06:15.998Z,1.20
2023-05-08T17:08:35.519Z,1.00
2023-05-08T17:11:05.008Z,1.10
2023-05-08T17:13:34.798Z,1.20
2023-05-08T17:16:04.315Z,1.10
2023-05-08T17:18:33.895Z,1.10
2023-05-08T17:20:52.759Z,1.10
2023-05-08T17:23:01.986Z,1.90
2023-05-08T17:25:14.453Z,0.90
2023-05-08T17:27:35.145Z,1.10
2023-05-08T17:30:04.500Z,0.80
2023-05-08T17:32:17.276Z,0.80
2023-05-08T17:34:46.625Z,0.80
2023-05-08T17:36:59.068Z,1.20
2023-05-08T17:39:28.391Z,1.00
2023-05-08T17:41:51.992Z,0.90
2023-05-08T17:44:22.196Z,0.80
2023-05-08T17:46:35.401Z,0.80
2023-05-08T17:49:04.768Z,0.80
2023-05-08T17:51:34.297Z,0.50
2023-05-08T17:53:47.214Z,0.80
2023-05-08T17:56:05.575Z,0.80
2023-05-08T17:58:21.669Z,0.90
2023-05-08T18:00:30.982Z,0.60
2023-05-08T18:02:40.515Z,0.70
2023-05-08T18:05:11.372Z,1.10
2023-05-08T18:07:30.989Z,1.00
2023-05-08T18:09:43.164Z,0.90
2023-05-08T18:12:12.634Z,1.00
2023-05-08T18:14:44.612Z,0.80
2023-05-08T18:17:15.903Z,0.80
2023-05-08T18:19:26.366Z,0.90
2023-05-08T18:21:49.184Z,1.00
2023-05-08T18:23:58.783Z,0.80
2023-05-08T18:26:18.677Z,0.80
2023-05-08T18:28:31.062Z,0.70
2023-05-08T18:30:51.280Z,0.90
2023-05-08T18:33:03.734Z,0.80
2023-05-08T18:35:17.129Z,1.00
2023-05-08T18:37:37.458Z,0.90
2023-05-08T18:39:46.959Z,0.80
2023-05-08T18:42:15.095Z,0.90
2023-05-08T18:44:27.662Z,1.00
2023-05-08T18:46:48.545Z,1.00
2023-05-08T18:48:58.157Z,0.90
2023-05-08T18:51:07.600Z,1.00
2023-05-08T18:53:26.516Z,0.80
2023-05-08T18:55:58.943Z,0.80
2023-05-08T18:58:28.848Z,0.70
2023-05-08T19:00:38.273Z,0.90
2023-05-08T19:02:47.479Z,0.80
2023-05-08T19:05:16.973Z,0.70
2023-05-08T19:07:36.861Z,0.90
2023-05-08T19:09:58.186Z,0.80
2023-05-08T19:12:21.681Z,0.80
2023-05-08T19:14:42.537Z,0.90
2023-05-08T19:16:58.386Z,1.50
2023-05-08T19:21:35.419Z,1.10
2023-05-08T19:23:45.036Z,1.10
2023-05-08T19:26:07.215Z,1.00
2023-05-08T19:28:25.794Z,1.10
2023-05-08T19:30:35.193Z,1.40
2023-05-08T19:32:55.613Z,1.00
2023-05-08T19:35:25.082Z,1.00
2023-05-08T19:37:34.448Z,1.10
2023-05-08T19:39:54.201Z,1.20
2023-05-08T19:42:14.204Z,1.20
2023-05-08T19:44:33.184Z,1.00
2023-05-08T19:46:54.346Z,1.30
2023-05-08T19:49:03.593Z,1.00
2023-05-08T19:51:32.764Z,1.10
2023-05-08T19:54:02.087Z,1.00
2023-05-08T19:56:25.474Z,0.90
2023-05-08T19:58:58.122Z,1.20
2023-05-08T20:01:27.988Z,1.00
2023-05-08T20:03:59.044Z,0.90
2023-05-08T20:06:21.218Z,0.70
2023-05-08T20:08:50.695Z,0.80
2023-05-08T20:11:22.371Z,0.80
2023-05-08T20:13:53.976Z,0.70
2023-05-08T20:16:03.514Z,1.20
2023-05-08T20:18:24.888Z,1.00
2023-05-08T20:20:45.408Z,0.80
2023-05-08T20:23:04.787Z,0.70
2023-05-08T20:25:14.318Z,0.80
2023-05-08T20:27:43.888Z,0.80
2023-05-08T20:29:57.861Z,1.00
2023-05-08T20:32:27.456Z,0.60
2023-05-08T20:34:56.836Z,0.60
2023-05-08T20:37:26.355Z,0.50
2023-05-08T20:39:55.970Z,0.90
2023-05-08T20:42:15.333Z,0.70
2023-05-08T20:44:24.825Z,0.70
2023-05-08T20:46:54.462Z,0.80
2023-05-08T20:49:24.611Z,0.60
2023-05-08T20:51:54.129Z,0.70
2023-05-08T20:54:24.154Z,0.80
2023-05-08T20:56:53.419Z,0.70
2023-05-08T20:59:23.843Z,0.90
2023-05-08T21:01:42.889Z,0.70
2023-05-08T21:03:52.209Z,0.60
2023-05-08T21:06:21.502Z,0.40
2023-05-08T21:08:51.508Z,0.60
2023-05-08T21:11:21.519Z,0.70
2023-05-08T21:13:50.854Z,0.60
2023-05-08T21:16:20.707Z,0.60
2023-05-08T21:18:41.100Z,0.60
2023-05-08T21:21:18.317Z,0.70
2023-05-08T21:23:37.526Z,0.80
2023-05-08T21:26:06.968Z,0.90
2023-05-08T21:28:16.775Z,0.90
2023-05-08T21:30:47.895Z,1.10
2023-05-08T21:33:17.484Z,1.40
2023-05-08T21:35:29.731Z,1.30
2023-05-08T21:37:59.334Z,1.10
2023-05-08T21:40:13.120Z,1.10
2023-05-08T21:42:43.201Z,0.90
2023-05-08T21:44:52.712Z,1.50
2023-05-08T21:47:22.810Z,1.20
2023-05-08T21:49:52.044Z,1.40
2023-05-08T21:52:22.856Z,1.40
2023-05-08T21:54:52.809Z,1.00
2023-05-08T21:57:22.238Z,1.10
2023-05-08T21:59:42.758Z,1.00
2023-05-08T22:02:12.478Z,1.20
2023-05-08T22:04:41.877Z,1.00
2023-05-08T22:06:51.175Z,1.00
2023-05-08T22:09:20.508Z,1.00
2023-05-08T22:11:40.875Z,1.20
2023-05-08T22:14:10.143Z,0.90
2023-05-08T22:16:19.756Z,1.10
2023-05-08T22:18:49.236Z,1.00
2023-05-08T22:21:18.661Z,0.90
2023-05-08T22:23:31.742Z,1.10
2023-05-08T22:25:51.227Z,1.20
2023-05-08T22:28:20.565Z,1.30
2023-05-08T22:30:49.929Z,1.50
2023-05-08T22:33:19.359Z,1.00
2023-05-08T22:35:48.746Z,1.10
2023-05-08T22:38:18.220Z,1.10
2023-05-08T22:40:48.077Z,0.90
2023-05-08T22:42:59.064Z,0.90
2023-05-08T22:45:28.860Z,1.30
2023-05-08T22:47:58.538Z,1.10
2023-05-08T22:50:28.100Z,0.90
2023-05-08T22:52:57.432Z,1.50
2023-05-08T22:55:27.614Z,1.10
2023-05-08T22:57:56.993Z,1.20
2023-05-08T23:00:18.265Z,1.30
2023-05-08T23:02:35.047Z,1.30
2023-05-08T23:05:05.137Z,1.00
2023-05-08T23:07:18.246Z,1.10
2023-05-08T23:09:47.779Z,2.70
2023-05-08T23:12:17.226Z,1.90
2023-05-08T23:14:46.391Z,2.20
2023-05-08T23:17:05.943Z,2.60
2023-05-08T23:19:20.055Z,2.30
2023-05-08T23:21:33.149Z,2.50
2023-05-08T23:23:53.179Z,2.20
2023-05-08T23:26:23.286Z,2.50
2023-05-08T23:28:43.732Z,2.40
2023-05-08T23:31:11.799Z,2.10
2023-05-08T23:33:31.794Z,2.00
2023-05-08T23:36:01.642Z,2.20
2023-05-08T23:38:11.257Z,2.30
2023-05-08T23:40:30.706Z,2.00
2023-05-08T23:42:53.156Z,2.00
2023-05-08T23:45:22.707Z,2.20
2023-05-08T23:47:52.009Z,2.30
2023-05-08T23:50:21.831Z,1.80
2023-05-08T23:52:35.010Z,2.30
2023-05-08T23:55:04.602Z,2.10
2023-05-08T23:57:34.360Z,1.50
